KAVP/AVP METAR and TAF weather

Enter ICAO airport designator
Station Type Date Time Source
KAVP METAR 2019/04/18 09:54 UTC NOAA

KAVP 180954Z VRB04KT 10SM OVC027 11/04 A3005 RMK AO2 SLP174 T01060044


Station Type Date Time Source
KAVP Decoded METAR 2019/04/18 09:54 UTC NOAA

WILKES-BARRE/SCRANTON INTERNATIONAL , PA, United States (KAVP) 41-20N 75-44W 291M
Apr 18, 2019 - 05:54 AM EDT / 2019.04.18 0954 UTC
Wind: Variable at 5 MPH (4 KT):0
Visibility: 10 mile(s):0
Sky conditions: overcast
Temperature: 51.1 F (10.6 C)
Dew Point: 39.9 F (4.4 C)
Relative Humidity: 65%
Pressure (altimeter): 30.05 in. Hg (1017 hPa)
ob: KAVP 180954Z VRB04KT 10SM OVC027 11/04 A3005 RMK AO2 SLP174 T01060044
cycle: 10

Station Type Date Time Source
KAVP TAF 2019/04/18 06:42 UTC NOAA

TAF KAVP 180539Z 1806/1906 16004KT P6SM OVC025
FM181100 15010KT P6SM OVC015
FM181800 17010KT P6SM BKN025
FM190000 18008KT P6SM BKN060 WS020/21045KT

Example: see airport list